Time;durP1;ratioP1;P1;durP2;ratioP2;P2;SDS_P1;SDS_P2;PMS_P1;PMS_P2;Temp;Humidity;BMP_temperature;BMP_pressure;BME280_temperature;BME280_humidity;BME280_pressure;Samples;Min_cycle;Max_cycle;Signal;HPM_P1;HPM_P2
2022/11/06 00:00:07;;;;;;;3.10;3.00;;;20.40;96.30;;;;;;5053333;28;20841;-70
2022/11/06 00:02:34;;;;;;;2.97;2.87;;;20.40;96.40;;;;;;5053396;28;20451;-70
2022/11/06 00:07:45;;;;;;;3.70;2.80;;;20.30;96.40;;;;;;5052267;28;20925;-70
2022/11/06 00:10:12;;;;;;;3.50;3.30;;;20.30;96.40;;;;;;5053086;28;20546;-70
2022/11/06 00:12:40;;;;;;;3.50;3.40;;;20.30;96.40;;;;;;5053472;28;20532;-70
2022/11/06 00:15:08;;;;;;;3.17;3.10;;;20.30;96.60;;;;;;5053275;28;20879;-70
2022/11/06 00:17:35;;;;;;;2.90;2.80;;;20.30;96.50;;;;;;5052924;28;20546;-70
2022/11/06 00:20:02;;;;;;;3.43;3.33;;;20.30;96.50;;;;;;5052855;28;21126;-70
2022/11/06 00:22:32;;;;;;;3.70;3.53;;;20.30;96.60;;;;;;5053141;28;20436;-70
2022/11/06 00:24:59;;;;;;;3.30;3.20;;;20.30;96.60;;;;;;5053165;28;20446;-71
2022/11/06 00:27:27;;;;;;;3.07;2.97;;;20.30;96.60;;;;;;5053101;28;20456;-70
2022/11/06 00:29:55;;;;;;;2.93;2.93;;;20.30;96.60;;;;;;5052639;28;20442;-70
2022/11/06 00:32:22;;;;;;;3.00;2.90;;;20.30;96.60;;;;;;5052855;28;20479;-70
2022/11/06 00:34:49;;;;;;;3.07;3.00;;;20.20;96.60;;;;;;5052867;28;20531;-70
2022/11/06 00:37:16;;;;;;;3.10;3.10;;;20.20;96.60;;;;;;5052734;28;20812;-70
2022/11/06 00:39:42;;;;;;;3.30;3.20;;;20.20;96.70;;;;;;5052389;28;21073;-70
2022/11/06 00:42:09;;;;;;;3.20;3.10;;;20.20;96.70;;;;;;5051740;28;20464;-70
2022/11/06 00:44:36;;;;;;;3.97;3.77;;;20.20;96.60;;;;;;5052752;28;20451;-70
2022/11/06 00:47:05;;;;;;;3.47;3.37;;;20.20;96.70;;;;;;5052458;28;20795;-71
2022/11/06 00:49:31;;;;;;;3.40;3.30;;;20.20;96.70;;;;;;5052459;28;20535;-70
2022/11/06 00:51:58;;;;;;;3.23;3.13;;;20.20;96.70;;;;;;5052429;28;20549;-70
2022/11/06 00:54:25;;;;;;;3.40;3.30;;;20.20;96.70;;;;;;5052688;28;20524;-71
2022/11/06 00:56:52;;;;;;;3.20;3.10;;;20.20;96.70;;;;;;5052481;28;20945;-70
2022/11/06 00:59:19;;;;;;;2.70;2.70;;;20.20;96.70;;;;;;5052176;28;21104;-70
2022/11/06 01:01:46;;;;;;;3.30;3.20;;;20.20;96.80;;;;;;5052338;28;20559;-70
2022/11/06 01:04:16;;;;;;;3.53;3.43;;;20.20;96.80;;;;;;5053271;28;20483;-70
2022/11/06 01:06:45;;;;;;;3.23;3.23;;;20.20;96.80;;;;;;5053952;28;21032;-71
2022/11/06 01:09:14;;;;;;;2.73;2.73;;;20.10;96.80;;;;;;5053839;28;20531;-70
2022/11/06 01:11:43;;;;;;;3.17;3.07;;;20.10;96.80;;;;;;5053277;28;20531;-70
2022/11/06 01:14:12;;;;;;;3.20;3.10;;;20.10;97.10;;;;;;5053780;28;20535;-71
2022/11/06 01:16:39;;;;;;;3.23;3.13;;;20.10;96.80;;;;;;5053769;28;20996;-71
2022/11/06 01:19:07;;;;;;;2.97;2.87;;;20.10;96.80;;;;;;5053896;28;20527;-71
2022/11/06 01:21:37;;;;;;;3.03;2.93;;;20.10;96.70;;;;;;5053681;28;20622;-71
2022/11/06 01:24:06;;;;;;;3.30;3.10;;;20.10;96.80;;;;;;5063904;28;20471;-70
2022/11/06 01:26:34;;;;;;;3.40;3.30;;;20.10;96.80;;;;;;5058079;28;20444;-70
2022/11/06 01:29:00;;;;;;;2.73;2.63;;;20.10;96.80;;;;;;5051891;28;20444;-70
2022/11/06 01:31:31;;;;;;;3.27;3.10;;;20.10;96.80;;;;;;5051665;28;20549;-70
2022/11/06 01:34:00;;;;;;;3.00;2.90;;;20.10;96.80;;;;;;5051801;28;20476;-70
2022/11/06 01:36:28;;;;;;;2.90;2.80;;;20.10;96.70;;;;;;5051544;28;20526;-70
2022/11/06 01:38:58;;;;;;;3.17;3.07;;;20.10;96.80;;;;;;5051812;28;20907;-70
2022/11/06 01:41:28;;;;;;;3.03;2.93;;;20.00;96.80;;;;;;5051612;28;20571;-70
2022/11/06 01:43:57;;;;;;;3.53;3.43;;;20.10;96.80;;;;;;5051448;28;20534;-70
2022/11/06 01:46:26;;;;;;;2.90;2.80;;;20.00;96.80;;;;;;5051805;28;20448;-70
2022/11/06 01:48:56;;;;;;;3.83;3.57;;;20.00;96.80;;;;;;5051497;28;20475;-70
2022/11/06 01:51:26;;;;;;;3.83;3.63;;;20.00;96.90;;;;;;5051334;28;20498;-71
2022/11/06 01:53:54;;;;;;;3.40;3.30;;;20.00;96.90;;;;;;5051439;28;20796;-70
2022/11/06 01:56:23;;;;;;;3.10;3.00;;;20.00;96.90;;;;;;5051587;28;20444;-70
2022/11/06 01:58:53;;;;;;;2.90;2.80;;;20.00;96.90;;;;;;5051532;28;21044;-70
2022/11/06 02:01:20;;;;;;;3.33;3.23;;;20.00;97.00;;;;;;5051198;28;20579;-70
2022/11/06 02:03:53;;;;;;;3.80;3.70;;;19.90;96.90;;;;;;5051134;28;20535;-71
2022/11/06 02:06:20;;;;;;;3.13;3.03;;;20.00;96.90;;;;;;5051602;28;20452;-70
2022/11/06 02:08:47;;;;;;;3.03;2.93;;;19.90;96.90;;;;;;5051528;28;20593;-70
2022/11/06 02:11:14;;;;;;;3.63;3.53;;;19.90;96.90;;;;;;5051869;28;20522;-71
2022/11/06 02:13:49;;;;;;;3.20;3.10;;;19.90;96.90;;;;;;5050998;28;20539;-71
2022/11/06 02:16:33;;;;;;;3.87;3.77;;;19.90;96.90;;;;;;5051501;28;20542;-71
2022/11/06 02:19:20;;;;;;;2.87;2.77;;;19.90;96.90;;;;;;5051335;28;20523;-71
2022/11/06 02:22:18;;;;;;;2.90;2.90;;;19.90;97.00;;;;;;5050890;28;20460;-70
2022/11/06 02:25:08;;;;;;;3.43;3.33;;;19.90;97.00;;;;;;5050372;28;21023;-70
2022/11/06 02:27:37;;;;;;;3.20;3.10;;;19.90;97.00;;;;;;5051429;28;20534;-70
2022/11/06 02:30:07;;;;;;;2.90;2.80;;;19.90;96.90;;;;;;5051022;28;20448;-70
2022/11/06 02:32:41;;;;;;;3.23;3.13;;;19.90;97.00;;;;;;5050602;28;20472;-70
2022/11/06 02:35:18;;;;;;;3.17;3.07;;;19.90;97.30;;;;;;5051326;28;20818;-70
2022/11/06 02:37:47;;;;;;;3.17;3.07;;;19.90;97.00;;;;;;5051408;28;20550;-70
2022/11/06 02:40:16;;;;;;;3.53;3.40;;;19.90;97.00;;;;;;5050829;28;20570;-70
2022/11/06 02:42:48;;;;;;;4.03;3.80;;;19.90;97.00;;;;;;5050885;28;20487;-70
2022/11/06 02:45:18;;;;;;;3.00;2.90;;;19.90;97.00;;;;;;5051074;28;20941;-70
2022/11/06 02:47:49;;;;;;;3.00;2.90;;;19.90;97.00;;;;;;5051255;28;20452;-70
2022/11/06 02:50:22;;;;;;;3.00;2.90;;;19.90;96.90;;;;;;5050871;28;20474;-70
2022/11/06 02:52:55;;;;;;;3.37;3.20;;;19.90;96.90;;;;;;5050926;28;20550;-70
2022/11/06 02:55:27;;;;;;;2.87;2.77;;;19.90;96.90;;;;;;5051109;28;20577;-70
2022/11/06 02:58:00;;;;;;;3.20;3.00;;;19.90;96.90;;;;;;5050922;28;20996;-70
2022/11/06 03:00:28;;;;;;;3.07;2.97;;;19.90;96.90;;;;;;5050634;28;20859;-70
2022/11/06 03:03:00;;;;;;;3.00;2.90;;;19.90;96.90;;;;;;5050845;28;20555;-70
2022/11/06 03:05:31;;;;;;;2.57;2.47;;;19.90;97.00;;;;;;5053303;28;21019;-70
2022/11/06 03:08:02;;;;;;;3.63;3.43;;;19.90;96.90;;;;;;5054584;28;20821;-70
2022/11/06 03:10:34;;;;;;;3.00;2.90;;;19.90;96.90;;;;;;5054067;28;21001;-70
2022/11/06 03:13:09;;;;;;;2.63;2.63;;;19.90;96.90;;;;;;5054383;28;21000;-70
2022/11/06 03:15:41;;;;;;;3.03;2.93;;;19.90;96.90;;;;;;5054642;28;20555;-70
2022/11/06 03:18:14;;;;;;;2.73;2.63;;;19.80;96.90;;;;;;5054592;28;20455;-70
2022/11/06 03:20:50;;;;;;;2.80;2.70;;;19.90;97.00;;;;;;5053731;28;20567;-70
2022/11/06 03:23:24;;;;;;;3.53;3.43;;;19.80;97.00;;;;;;5054752;28;20550;-70
2022/11/06 03:25:56;;;;;;;3.13;3.03;;;19.80;97.00;;;;;;5054458;28;20488;-70
2022/11/06 03:28:31;;;;;;;2.90;2.80;;;19.80;97.00;;;;;;5054397;28;20531;-70
2022/11/06 03:31:02;;;;;;;3.13;3.03;;;19.80;97.00;;;;;;5053921;28;20821;-70
2022/11/06 03:33:34;;;;;;;3.07;2.97;;;19.80;97.00;;;;;;5053835;28;20452;-70
2022/11/06 03:36:04;;;;;;;2.83;2.73;;;19.80;97.00;;;;;;5054122;28;20945;-71
2022/11/06 03:38:35;;;;;;;2.90;2.80;;;19.80;97.00;;;;;;5054091;28;21036;-70
2022/11/06 03:41:06;;;;;;;3.17;2.97;;;19.80;97.00;;;;;;5053653;28;20578;-70
2022/11/06 03:43:37;;;;;;;3.03;2.93;;;19.80;96.90;;;;;;5053640;28;20579;-70
2022/11/06 03:46:07;;;;;;;3.20;3.10;;;19.80;96.90;;;;;;5053893;28;20971;-70
2022/11/06 03:48:40;;;;;;;3.27;3.13;;;19.80;97.00;;;;;;5053760;28;20514;-70
2022/11/06 03:51:10;;;;;;;3.00;2.90;;;19.80;96.90;;;;;;5053652;28;20491;-70
2022/11/06 03:53:41;;;;;;;3.33;3.23;;;19.80;96.90;;;;;;5053706;28;21033;-70
2022/11/06 03:56:10;;;;;;;3.10;3.00;;;19.80;96.90;;;;;;5053451;28;20537;-70
2022/11/06 03:58:41;;;;;;;2.73;2.70;;;19.80;96.90;;;;;;5053674;28;20543;-70
2022/11/06 04:01:10;;;;;;;2.80;2.70;;;19.70;96.90;;;;;;5053204;28;20583;-70
2022/11/06 04:03:42;;;;;;;2.70;2.60;;;19.70;96.90;;;;;;5053651;28;20534;-70
2022/11/06 04:06:13;;;;;;;3.10;3.00;;;19.70;96.90;;;;;;5053592;28;20451;-70
2022/11/06 04:14:18;;;;;;;3.20;3.10;;;19.70;96.90;;;;;;5053375;28;20803;-70
2022/11/06 04:16:49;;;;;;;3.10;3.00;;;19.70;96.80;;;;;;5053086;28;20965;-70
2022/11/06 04:19:18;;;;;;;2.80;2.80;;;19.70;96.80;;;;;;5053186;28;20494;-70
2022/11/06 04:21:58;;;;;;;2.70;2.60;;;19.70;96.70;;;;;;5053013;28;20484;-71
2022/11/06 04:27:31;;;;;;;3.03;2.93;;;19.80;96.70;;;;;;5052936;28;20439;-70
2022/11/06 04:30:10;;;;;;;2.63;2.63;;;19.80;96.60;;;;;;5052734;28;20502;-70
2022/11/06 04:32:48;;;;;;;2.50;2.50;;;19.70;96.50;;;;;;5053000;28;20870;-70
2022/11/06 04:35:24;;;;;;;2.70;2.60;;;19.70;96.60;;;;;;5052968;28;20530;-71
2022/11/06 04:37:57;;;;;;;2.93;2.83;;;19.70;96.60;;;;;;5052828;28;20452;-70
2022/11/06 04:40:30;;;;;;;2.97;2.87;;;19.70;96.70;;;;;;5039616;28;20571;-70
2022/11/06 04:43:02;;;;;;;2.70;2.60;;;19.80;96.80;;;;;;5052392;28;20472;-69
2022/11/06 04:45:33;;;;;;;3.03;2.93;;;19.80;96.80;;;;;;5052653;28;20980;-69
2022/11/06 04:48:02;;;;;;;3.40;3.27;;;19.80;96.80;;;;;;5052688;28;20436;-68
2022/11/06 04:50:33;;;;;;;3.07;2.97;;;19.80;96.90;;;;;;5052168;28;20495;-69
2022/11/06 04:53:01;;;;;;;2.60;2.50;;;19.80;97.30;;;;;;5032706;28;20530;-69
2022/11/06 04:55:30;;;;;;;3.20;3.10;;;19.70;97.40;;;;;;5032719;28;20447;-69
2022/11/06 04:57:57;;;;;;;3.00;2.90;;;19.80;97.50;;;;;;5032791;28;20449;-70
2022/11/06 05:00:24;;;;;;;2.93;2.83;;;19.70;97.40;;;;;;5032225;28;20560;-69
2022/11/06 05:02:53;;;;;;;2.30;2.30;;;19.70;97.40;;;;;;5035210;28;20559;-70
2022/11/06 05:05:19;;;;;;;2.70;2.70;;;19.70;97.50;;;;;;5052263;28;20483;-69
2022/11/06 05:07:46;;;;;;;3.70;3.60;;;19.70;97.50;;;;;;5052347;28;20952;-69
2022/11/06 05:10:13;;;;;;;3.20;3.10;;;19.70;97.50;;;;;;5051882;28;20555;-69
2022/11/06 05:12:40;;;;;;;3.07;2.97;;;19.70;97.50;;;;;;5052096;28;20534;-69
2022/11/06 05:15:08;;;;;;;3.17;3.07;;;19.70;97.80;;;;;;5051930;28;20482;-69
2022/11/06 05:17:35;;;;;;;2.87;2.80;;;19.70;97.50;;;;;;5052037;28;20542;-70
2022/11/06 05:20:03;;;;;;;3.87;3.67;;;19.70;97.40;;;;;;5051849;28;20523;-69
2022/11/06 05:25:23;;;;;;;2.93;2.83;;;19.70;97.40;;;;;;5018932;28;20515;-69
2022/11/06 05:27:49;;;;;;;3.00;2.80;;;19.60;97.40;;;;;;5031703;28;20535;-68
2022/11/06 05:30:16;;;;;;;2.90;2.80;;;19.60;97.40;;;;;;5031975;28;20465;-69
2022/11/06 05:32:43;;;;;;;2.90;2.80;;;19.60;97.40;;;;;;5031907;28;20532;-69
2022/11/06 05:35:11;;;;;;;2.60;2.50;;;19.60;97.40;;;;;;5050475;28;20531;-69
2022/11/06 05:37:38;;;;;;;4.10;3.37;;;19.60;97.60;;;;;;5051962;28;20846;-69
2022/11/06 05:40:07;;;;;;;2.63;2.60;;;19.60;97.30;;;;;;5051659;28;20677;-69
2022/11/06 05:42:34;;;;;;;3.10;3.00;;;19.60;97.40;;;;;;5051506;28;20475;-69
2022/11/06 05:45:01;;;;;;;3.07;2.97;;;19.60;97.40;;;;;;5051791;28;20440;-69
2022/11/06 05:47:27;;;;;;;3.17;3.07;;;19.60;97.30;;;;;;5051460;28;20531;-70
2022/11/06 05:49:54;;;;;;;3.00;2.90;;;19.60;97.50;;;;;;5051392;28;20501;-70
2022/11/06 05:52:22;;;;;;;3.10;3.10;;;19.60;97.20;;;;;;5051557;28;21044;-69
2022/11/06 05:54:49;;;;;;;2.60;2.50;;;19.60;97.30;;;;;;5051559;28;20892;-70
2022/11/06 05:57:16;;;;;;;2.80;2.70;;;19.60;97.20;;;;;;5051422;28;20535;-70
2022/11/06 05:59:44;;;;;;;3.13;3.03;;;19.60;97.20;;;;;;5051409;28;20448;-71
2022/11/06 06:02:12;;;;;;;2.80;2.70;;;19.60;98.10;;;;;;5051458;28;20601;-66
2022/11/06 06:04:38;;;;;;;2.63;2.60;;;19.70;97.90;;;;;;5051667;28;20790;-68
2022/11/06 06:07:05;;;;;;;2.70;2.60;;;19.90;97.80;;;;;;5051719;28;20475;-71
2022/11/06 06:09:34;;;;;;;2.93;2.70;;;20.00;96.90;;;;;;5050852;28;20455;-68
2022/11/06 06:12:10;;;;;;;2.90;2.80;;;20.10;96.40;;;;;;5050718;28;20634;-68
2022/11/06 13:19:31;;;;;;;4.50;4.30;;;21.30;92.80;;;;;;5100896;27;20553;-66
2022/11/06 13:22:15;;;;;;;4.00;3.90;;;21.30;93.40;;;;;;5090379;28;20460;-66
2022/11/06 13:24:48;;;;;;;4.33;4.13;;;21.50;94.00;;;;;;5090435;28;20495;-66
2022/11/06 13:27:25;;;;;;;3.53;3.43;;;21.60;93.60;;;;;;5105160;28;20441;-66
2022/11/06 13:30:00;;;;;;;3.80;3.70;;;21.80;93.30;;;;;;5109841;28;20571;-67
2022/11/06 13:32:30;;;;;;;3.60;3.40;;;21.90;93.00;;;;;;5088544;22;20524;-49
2022/11/06 13:35:00;;;;;;;3.80;3.70;;;22.10;93.10;;;;;;5063919;28;20493;-51
2022/11/06 13:37:38;;;;;;;3.67;3.50;;;22.20;92.20;;;;;;5068639;28;20479;-50
2022/11/06 13:40:16;;;;;;;4.03;3.93;;;22.30;91.50;;;;;;5069210;28;20443;-55
2022/11/06 13:42:48;;;;;;;3.87;3.70;;;22.40;91.00;;;;;;5029353;28;20457;-58
2022/11/06 13:45:16;;;;;;;3.47;3.40;;;22.50;90.30;;;;;;5029119;28;20770;-53
2022/11/06 13:47:57;;;;;;;3.80;3.60;;;22.50;90.00;;;;;;5028842;28;20511;-56
2022/11/06 13:50:33;;;;;;;4.57;4.30;;;22.60;90.00;;;;;;5028532;28;20445;-61
2022/11/06 13:53:05;;;;;;;3.10;3.00;;;22.60;88.30;;;;;;5048209;28;20452;-58
2022/11/06 13:55:46;;;;;;;3.47;3.37;;;22.60;88.10;;;;;;5048857;28;20248;-60
2022/11/06 13:58:35;;;;;;;3.90;3.70;;;22.50;85.60;;;;;;5049159;28;20575;-63
2022/11/06 14:01:15;;;;;;;4.10;3.90;;;22.50;86.20;;;;;;5048342;28;20973;-60
2022/11/06 14:04:15;;;;;;;3.90;3.80;;;22.50;88.10;;;;;;5048024;28;20539;-60
2022/11/06 14:06:45;;;;;;;4.53;4.23;;;22.50;87.70;;;;;;5048550;28;20436;-62
2022/11/06 14:09:18;;;;;;;3.90;3.80;;;22.50;87.60;;;;;;5048643;28;20531;-60
2022/11/06 14:11:51;;;;;;;5.20;4.90;;;22.40;86.90;;;;;;5047461;28;20471;-62
2022/11/06 14:14:26;;;;;;;5.00;4.50;;;22.40;86.10;;;;;;5048317;28;20444;-57
2022/11/06 14:17:13;;;;;;;5.27;4.87;;;22.40;86.20;;;;;;5048112;28;20501;-60
2022/11/06 14:19:41;;;;;;;5.33;5.03;;;22.50;89.80;;;;;;5047944;28;20452;-56
2022/11/06 14:22:25;;;;;;;4.77;4.50;;;22.60;88.80;;;;;;5034686;28;20571;-56
2022/11/06 14:24:53;;;;;;;4.40;4.27;;;22.70;87.90;;;;;;5028323;28;20445;-55
2022/11/06 14:27:57;;;;;;;4.80;4.50;;;22.70;87.40;;;;;;5028191;28;20868;-55
2022/11/06 14:30:43;;;;;;;4.87;4.67;;;22.80;86.90;;;;;;5016340;28;20534;-53
2022/11/06 14:34:06;;;;;;;5.90;5.47;;;22.80;86.40;;;;;;5015304;28;20812;-61
2022/11/06 14:36:35;;;;;;;4.83;4.53;;;22.90;86.20;;;;;;4954306;29;20522;-57
2022/11/06 14:39:10;;;;;;;4.27;4.13;;;22.70;83.90;;;;;;4954319;28;20523;-58
2022/11/06 14:41:56;;;;;;;4.20;4.00;;;22.70;84.30;;;;;;4984744;28;20479;-56
2022/11/06 14:44:39;;;;;;;4.73;4.33;;;22.60;84.10;;;;;;5014331;28;20927;-58
2022/11/06 14:47:19;;;;;;;6.97;5.80;;;22.60;84.50;;;;;;5033506;28;20446;-61
2022/11/06 14:49:52;;;;;;;14.97;7.17;;;22.60;85.20;;;;;;5033943;28;20448;-50
2022/11/06 14:52:21;;;;;;;23.47;9.87;;;22.50;90.70;;;;;;5033993;28;20527;-52
2022/11/06 14:54:58;;;;;;;8.20;7.43;;;22.50;93.00;;;;;;5034045;28;20445;-61
2022/11/06 14:57:41;;;;;;;10.60;7.30;;;22.50;92.20;;;;;;5030449;28;20931;-61
2022/11/06 15:00:14;;;;;;;11.20;6.60;;;22.60;91.80;;;;;;5014835;28;20446;-59
2022/11/06 15:02:41;;;;;;;9.93;7.50;;;22.60;91.60;;;;;;5014225;28;20473;-61
2022/11/06 15:05:16;;;;;;;9.23;6.10;;;22.60;91.40;;;;;;5014185;28;20446;-62
2022/11/06 15:07:56;;;;;;;6.77;6.10;;;22.60;91.20;;;;;;5014470;28;20488;-62
2022/11/06 15:10:53;;;;;;;6.20;5.70;;;22.50;91.00;;;;;;5026278;28;20507;-59
2022/11/06 15:13:32;;;;;;;11.70;6.50;;;22.50;90.90;;;;;;5034290;28;20526;-58
2022/11/06 15:16:10;;;;;;;7.20;5.37;;;22.40;90.80;;;;;;5034466;28;20451;-58
2022/11/06 15:18:40;;;;;;;8.93;5.80;;;22.40;90.80;;;;;;5034101;28;20475;-58
2022/11/06 15:21:10;;;;;;;11.23;6.00;;;22.40;90.70;;;;;;5033415;28;20484;-60
2022/11/06 15:23:42;;;;;;;9.93;7.43;;;22.30;90.60;;;;;;5014580;28;20504;-61
2022/11/06 15:26:22;;;;;;;8.67;7.30;;;22.20;90.80;;;;;;5014058;28;20699;-61
2022/11/06 15:28:56;;;;;;;9.07;8.30;;;22.10;92.70;;;;;;5012838;28;21017;-63
2022/11/06 15:31:25;;;;;;;8.50;7.80;;;22.00;93.60;;;;;;5013346;28;20891;-58
2022/11/06 15:33:58;;;;;;;7.63;6.77;;;22.00;93.90;;;;;;5020473;28;20500;-62
2022/11/06 15:36:28;;;;;;;8.50;7.07;;;22.00;94.10;;;;;;5016213;28;20469;-60
2022/11/06 15:38:55;;;;;;;7.30;6.57;;;22.10;94.10;;;;;;5013875;28;20477;-60
2022/11/06 15:41:25;;;;;;;7.80;6.77;;;22.10;94.00;;;;;;5012158;28;20497;-58
2022/11/06 15:43:56;;;;;;;8.70;7.80;;;22.10;93.90;;;;;;5013504;28;20851;-57
2022/11/06 15:46:25;;;;;;;8.03;7.23;;;22.20;94.10;;;;;;5013484;28;20442;-56
2022/11/06 15:49:17;;;;;;;7.90;6.77;;;22.20;93.80;;;;;;5013206;28;20438;-55
2022/11/06 15:51:51;;;;;;;7.27;6.73;;;22.30;93.70;;;;;;5031818;28;20923;-54
2022/11/06 15:54:32;;;;;;;7.90;7.17;;;22.30;93.40;;;;;;5032926;28;20536;-55
2022/11/06 15:57:03;;;;;;;7.33;5.93;;;22.30;93.60;;;;;;5033142;28;20451;-56
2022/11/06 15:59:30;;;;;;;7.90;7.07;;;22.40;93.10;;;;;;5033301;28;20480;-58
2022/11/06 16:01:58;;;;;;;7.20;6.33;;;22.40;92.90;;;;;;5013616;28;20474;-58
2022/11/06 16:04:26;;;;;;;6.40;5.80;;;22.40;92.90;;;;;;5013061;28;20445;-61
2022/11/06 16:06:55;;;;;;;7.20;6.80;;;22.40;93.30;;;;;;5013063;28;20833;-56
2022/11/06 16:09:26;;;;;;;7.50;6.73;;;22.40;93.10;;;;;;5013255;28;20446;-61
2022/11/06 16:11:53;;;;;;;7.33;6.83;;;22.50;92.30;;;;;;5013018;28;20505;-60
2022/11/06 16:14:22;;;;;;;7.23;6.73;;;22.50;91.70;;;;;;5013113;28;20457;-58
2022/11/06 16:16:51;;;;;;;7.33;6.83;;;22.50;91.70;;;;;;5017117;28;20449;-61
2022/11/06 16:19:28;;;;;;;7.20;6.70;;;22.50;91.30;;;;;;5032356;28;20480;-58
2022/11/06 16:21:59;;;;;;;7.87;7.17;;;22.50;91.90;;;;;;5031862;28;20802;-57
2022/11/06 16:24:31;;;;;;;8.70;7.57;;;22.50;91.70;;;;;;5032461;28;20448;-56
2022/11/06 16:26:58;;;;;;;5.37;5.17;;;22.50;91.40;;;;;;5028794;28;20453;-58
2022/11/06 16:29:29;;;;;;;6.50;6.10;;;22.50;91.60;;;;;;5013114;28;20484;-60
2022/11/06 16:32:00;;;;;;;7.50;6.90;;;22.60;91.40;;;;;;5012584;28;21021;-63
2022/11/06 16:34:44;;;;;;;7.47;7.07;;;22.60;91.30;;;;;;5012710;28;20441;-61
2022/11/06 16:37:35;;;;;;;6.13;5.67;;;22.60;90.70;;;;;;5018434;28;20453;-59
2022/11/06 16:40:02;;;;;;;6.87;6.20;;;22.60;90.90;;;;;;5032216;28;20484;-61
2022/11/06 16:42:31;;;;;;;6.37;5.97;;;22.70;90.90;;;;;;5032363;28;20552;-58
2022/11/06 16:45:19;;;;;;;6.17;5.87;;;22.70;90.20;;;;;;5032470;28;20528;-62
2022/11/06 16:48:34;;;;;;;6.00;5.80;;;22.70;91.00;;;;;;5026623;28;20890;-58
2022/11/06 16:51:04;;;;;;;6.27;5.87;;;22.80;90.50;;;;;;4932576;29;20557;-63
2022/11/06 16:53:33;;;;;;;5.70;5.40;;;22.90;90.30;;;;;;4932182;29;20560;-65
2022/11/06 16:56:03;;;;;;;6.93;6.47;;;22.90;90.20;;;;;;4961115;28;20447;-61
2022/11/06 16:58:33;;;;;;;5.63;5.33;;;22.90;90.00;;;;;;4992447;28;20875;-62
2022/11/06 17:01:03;;;;;;;6.50;6.20;;;23.00;89.10;;;;;;5011436;28;20466;-60
2022/11/06 17:03:38;;;;;;;6.77;6.40;;;23.00;88.40;;;;;;5011997;28;20452;-64
2022/11/06 17:06:06;;;;;;;6.33;5.93;;;23.00;87.10;;;;;;5012091;28;20452;-64
2022/11/06 17:08:36;;;;;;;5.53;5.33;;;23.10;86.90;;;;;;5012051;28;20528;-65
2022/11/06 17:11:20;;;;;;;6.73;6.40;;;23.10;86.50;;;;;;5028574;28;20542;-66
2022/11/06 17:13:48;;;;;;;5.83;5.53;;;23.10;86.20;;;;;;5016545;28;20939;-66
2022/11/06 17:16:18;;;;;;;6.10;5.80;;;23.10;85.90;;;;;;5011992;28;20469;-64
2022/11/06 17:18:45;;;;;;;5.87;5.57;;;23.10;85.50;;;;;;5011833;28;20536;-65
2022/11/06 17:21:14;;;;;;;6.73;6.33;;;23.10;85.20;;;;;;5011649;28;20462;-66
2022/11/06 17:23:41;;;;;;;5.97;5.50;;;23.10;85.10;;;;;;5031630;28;20441;-64
2022/11/06 17:26:14;;;;;;;6.03;5.63;;;23.10;84.90;;;;;;5031552;28;20499;-65
2022/11/06 17:28:41;;;;;;;5.53;5.30;;;23.10;84.60;;;;;;5031637;28;20524;-66
2022/11/06 17:31:11;;;;;;;6.23;5.70;;;23.10;85.20;;;;;;5031430;28;20476;-65
2022/11/06 17:33:40;;;;;;;6.40;6.00;;;23.20;84.20;;;;;;5025697;28;20450;-65
2022/11/06 17:36:07;;;;;;;6.23;5.70;;;23.10;83.90;;;;;;5011830;28;20444;-65
2022/11/06 17:38:35;;;;;;;5.47;5.27;;;23.10;83.70;;;;;;5011847;28;20485;-65
2022/11/06 17:41:02;;;;;;;5.57;5.37;;;23.10;83.70;;;;;;5017433;28;20877;-61
2022/11/06 17:43:29;;;;;;;6.10;5.90;;;23.00;84.30;;;;;;5031902;28;20507;-61
2022/11/06 17:45:56;;;;;;;6.30;6.10;;;23.00;82.80;;;;;;5031720;28;20818;-58
2022/11/06 17:48:22;;;;;;;5.63;5.43;;;23.00;84.30;;;;;;5031693;28;20507;-58
2022/11/06 17:53:35;;;;;;;6.27;5.87;;;23.00;84.10;;;;;;5021807;28;20436;-58
2022/11/06 17:56:03;;;;;;;6.00;5.60;;;23.00;83.90;;;;;;5012646;28;20530;-61
2022/11/06 17:58:30;;;;;;;6.03;5.83;;;23.00;83.40;;;;;;5011613;28;20452;-62
2022/11/06 18:01:05;;;;;;;5.90;5.70;;;23.00;83.00;;;;;;5011278;28;21006;-57
2022/11/06 18:03:31;;;;;;;6.20;5.87;;;23.00;83.10;;;;;;5018073;28;20447;-59
2022/11/06 18:06:00;;;;;;;5.90;5.60;;;23.00;82.70;;;;;;5034461;28;20961;-61
2022/11/06 18:08:26;;;;;;;5.53;5.33;;;23.00;82.50;;;;;;5034832;28;20445;-57
2022/11/06 18:10:55;;;;;;;5.37;5.17;;;23.10;81.40;;;;;;5034623;28;20562;-61
2022/11/06 18:13:21;;;;;;;5.47;5.17;;;23.00;80.70;;;;;;5031713;28;20457;-64
2022/11/06 18:15:48;;;;;;;5.60;5.40;;;23.10;80.90;;;;;;5014892;28;20452;-63
2022/11/06 18:18:15;;;;;;;6.37;6.17;;;23.10;80.60;;;;;;5015162;28;20528;-63
2022/11/06 18:20:44;;;;;;;7.07;6.67;;;23.20;80.30;;;;;;5014566;28;20520;-63
2022/11/06 18:23:13;;;;;;;6.33;6.13;;;23.10;80.00;;;;;;5015266;28;20442;-60
2022/11/06 18:25:41;;;;;;;6.13;5.93;;;23.20;80.10;;;;;;5029237;28;20449;-61
2022/11/06 18:28:08;;;;;;;5.30;5.17;;;23.20;79.60;;;;;;5016094;28;20446;-60
2022/11/06 18:30:36;;;;;;;6.23;5.93;;;23.10;79.20;;;;;;5014451;28;20446;-63
2022/11/06 18:33:04;;;;;;;5.17;4.97;;;23.10;79.10;;;;;;5014793;28;20450;-63
2022/11/06 18:35:30;;;;;;;5.90;5.60;;;23.10;79.20;;;;;;5015305;28;20540;-66
2022/11/06 18:37:57;;;;;;;4.97;4.77;;;23.00;79.50;;;;;;5034711;28;20459;-62
2022/11/06 18:40:25;;;;;;;6.10;5.80;;;23.10;79.90;;;;;;5034033;28;20845;-61
2022/11/06 18:42:53;;;;;;;5.50;5.30;;;23.10;78.80;;;;;;5034469;28;20449;-63
2022/11/06 18:45:20;;;;;;;5.40;5.20;;;23.10;78.80;;;;;;5034411;28;20464;-63
2022/11/06 18:47:47;;;;;;;5.70;5.40;;;23.00;78.10;;;;;;5032856;28;20441;-67
2022/11/06 18:50:14;;;;;;;5.87;5.67;;;22.80;79.60;;;;;;5014248;28;20441;-63
2022/11/06 18:52:41;;;;;;;5.33;5.13;;;22.80;80.50;;;;;;5014208;28;20549;-66
2022/11/06 18:55:08;;;;;;;5.83;5.43;;;22.80;80.80;;;;;;5014204;28;20446;-63
2022/11/06 18:57:37;;;;;;;4.90;4.70;;;22.80;81.20;;;;;;5014227;28;20990;-64
2022/11/06 19:00:04;;;;;;;5.70;5.37;;;22.80;81.10;;;;;;5014894;28;20474;-65
2022/11/06 19:02:31;;;;;;;4.87;4.77;;;22.90;81.30;;;;;;5013922;28;20462;-66
2022/11/06 19:04:58;;;;;;;6.60;6.30;;;22.80;80.50;;;;;;5014054;28;20442;-65
2022/11/06 19:07:25;;;;;;;5.70;5.50;;;22.70;80.30;;;;;;5014278;28;20457;-66
2022/11/06 19:09:52;;;;;;;5.33;5.10;;;22.70;80.50;;;;;;5013808;28;20442;-66
2022/11/06 19:12:19;;;;;;;6.23;5.87;;;22.70;80.40;;;;;;5022584;28;20473;-63
2022/11/06 19:14:47;;;;;;;6.60;6.27;;;22.70;80.50;;;;;;5033731;28;20441;-59
2022/11/06 19:17:14;;;;;;;6.20;6.00;;;22.70;79.50;;;;;;5033916;28;20453;-61
2022/11/06 19:19:41;;;;;;;5.47;5.23;;;22.70;79.80;;;;;;5032413;28;20485;-62
2022/11/06 19:22:09;;;;;;;5.83;5.53;;;22.70;82.90;;;;;;5013951;28;20542;-65
2022/11/06 19:24:36;;;;;;;6.37;6.07;;;22.80;84.60;;;;;;5013764;28;20871;-66
2022/11/06 19:27:03;;;;;;;6.03;5.47;;;22.90;84.90;;;;;;5013931;28;20527;-60
2022/11/06 19:29:30;;;;;;;5.27;5.03;;;23.00;84.20;;;;;;5026093;28;20488;-62
2022/11/06 19:32:01;;;;;;;6.00;5.60;;;23.20;84.20;;;;;;5084922;22;20544;-63
2022/11/06 19:34:28;;;;;;;5.50;5.20;;;23.30;83.30;;;;;;5085120;28;20442;-63
2022/11/06 19:36:55;;;;;;;6.30;6.00;;;23.40;83.90;;;;;;5093546;28;20969;-63
2022/11/06 19:39:23;;;;;;;6.60;6.30;;;23.50;82.90;;;;;;5093249;28;21003;-58
2022/11/06 19:41:50;;;;;;;4.73;4.63;;;23.50;81.60;;;;;;5093193;28;20467;-59
2022/11/06 19:44:17;;;;;;;6.67;6.37;;;23.60;81.40;;;;;;5093437;28;20478;-56
2022/11/06 19:46:44;;;;;;;5.83;5.63;;;23.70;81.30;;;;;;5093487;28;20474;-59
2022/11/06 19:49:12;;;;;;;5.10;5.00;;;23.70;81.00;;;;;;5084251;28;20493;-59
2022/11/06 19:51:39;;;;;;;6.87;6.67;;;23.80;80.90;;;;;;5072704;28;20468;-58
2022/11/06 19:54:08;;;;;;;6.60;6.40;;;23.80;80.60;;;;;;5072858;28;20447;-62
2022/11/06 19:56:35;;;;;;;6.57;6.27;;;23.90;80.60;;;;;;5072794;28;20455;-63
2022/11/06 19:59:02;;;;;;;5.70;5.50;;;23.90;81.20;;;;;;5072981;28;20443;-61
2022/11/06 20:01:28;;;;;;;5.50;5.30;;;23.90;81.70;;;;;;5072595;28;20463;-61
2022/11/06 20:03:55;;;;;;;5.20;4.90;;;23.90;80.80;;;;;;5072709;28;20534;-62
2022/11/06 20:06:26;;;;;;;5.30;5.00;;;23.90;80.20;;;;;;5072849;28;20481;-58
2022/11/06 20:08:53;;;;;;;3.60;3.50;;;23.90;78.60;;;;;;5072739;28;20824;-61
2022/11/06 20:11:19;;;;;;;4.50;4.40;;;23.90;77.50;;;;;;5072309;28;20459;-59
2022/11/06 20:13:47;;;;;;;5.00;4.70;;;23.70;74.30;;;;;;5072515;28;20534;-57
2022/11/06 20:16:15;;;;;;;4.43;4.23;;;23.40;74.20;;;;;;5072556;28;20874;-57
2022/11/06 20:18:42;;;;;;;4.63;4.33;;;23.30;74.90;;;;;;5072392;28;20961;-56
2022/11/06 20:21:11;;;;;;;4.90;4.60;;;23.10;75.60;;;;;;5072018;28;20487;-58
2022/11/06 20:23:39;;;;;;;4.23;3.93;;;22.90;76.30;;;;;;5072530;28;20557;-56
2022/11/06 20:26:07;;;;;;;4.63;4.43;;;22.80;77.20;;;;;;5084557;28;20880;-60